Mount Zion, Iowa
Current Conditions -  °F | °C
As of 6:15 PM on Friday 28 Nov 2014 (Local Time) from KFFL Reporting Station
Clear Clear  
Wind Chill: 29°   Ceiling: Unl
Heat Index: 34°   Visibility: 10mi
Dew Point: 28°   Wind: 6mph
Humidity: 81%   Direction: 130°SE
Pressure: 29.82"   Gusts: NA
Location:  40.7687°N, 92.0788°W
Report Text: KFFL 290015Z AUTO 13005KT 10SM CLR 01/M02 A2982 RMK AO2
Loading
Personal Weather Stations






























Interactive Weather Map New forecast layout! Learn more

10-Day Weather Forecast

Advertisements
Track Severe Weather on mobile